sensor_id;sensor_type;location;lat;lon;timestamp;temperature;humidity
7676;DHT22;3880;51.464;-2.566;2022-12-07T00:01:42;3.60;99.90
7676;DHT22;3880;51.464;-2.566;2022-12-07T00:04:12;3.50;99.90
7676;DHT22;3880;51.464;-2.566;2022-12-07T00:06:42;3.50;99.90
7676;DHT22;3880;51.464;-2.566;2022-12-07T00:09:12;3.40;99.90
7676;DHT22;3880;51.464;-2.566;2022-12-07T00:11:40;3.50;99.90
7676;DHT22;3880;51.464;-2.566;2022-12-07T00:14:10;3.60;99.90
7676;DHT22;3880;51.464;-2.566;2022-12-07T00:16:38;3.60;99.90
7676;DHT22;3880;51.464;-2.566;2022-12-07T00:19:10;3.50;99.90
7676;DHT22;3880;51.464;-2.566;2022-12-07T00:21:37;3.40;99.90
7676;DHT22;3880;51.464;-2.566;2022-12-07T00:24:07;3.30;99.90
7676;DHT22;3880;51.464;-2.566;2022-12-07T00:26:35;3.30;99.90
7676;DHT22;3880;51.464;-2.566;2022-12-07T00:29:04;3.40;99.90
7676;DHT22;3880;51.464;-2.566;2022-12-07T00:31:34;3.30;99.90
7676;DHT22;3880;51.464;-2.566;2022-12-07T00:34:04;3.20;99.90
7676;DHT22;3880;51.464;-2.566;2022-12-07T00:36:32;3.20;99.90
7676;DHT22;3880;51.464;-2.566;2022-12-07T00:38:59;3.10;99.90
7676;DHT22;3880;51.464;-2.566;2022-12-07T00:41:29;3.10;99.90
7676;DHT22;3880;51.464;-2.566;2022-12-07T00:43:57;3.10;99.90
7676;DHT22;3880;51.464;-2.566;2022-12-07T00:46:24;3.00;99.90
7676;DHT22;3880;51.464;-2.566;2022-12-07T00:48:57;3.00;99.90
7676;DHT22;3880;51.464;-2.566;2022-12-07T00:51:25;2.90;99.90
7676;DHT22;3880;51.464;-2.566;2022-12-07T00:53:52;2.90;99.90
7676;DHT22;3880;51.464;-2.566;2022-12-07T00:56:21;2.80;99.90
7676;DHT22;3880;51.464;-2.566;2022-12-07T00:58:54;2.80;99.90
7676;DHT22;3880;51.464;-2.566;2022-12-07T01:01:21;2.70;99.90
7676;DHT22;3880;51.464;-2.566;2022-12-07T01:03:49;2.70;99.90
7676;DHT22;3880;51.464;-2.566;2022-12-07T01:06:17;2.60;99.90
7676;DHT22;3880;51.464;-2.566;2022-12-07T01:08:45;2.70;99.90
7676;DHT22;3880;51.464;-2.566;2022-12-07T01:11:15;2.70;99.90
7676;DHT22;3880;51.464;-2.566;2022-12-07T01:13:43;2.80;99.90
7676;DHT22;3880;51.464;-2.566;2022-12-07T01:16:14;2.80;99.90
7676;DHT22;3880;51.464;-2.566;2022-12-07T01:18:41;2.80;99.90
7676;DHT22;3880;51.464;-2.566;2022-12-07T01:21:12;2.80;99.90
7676;DHT22;3880;51.464;-2.566;2022-12-07T01:23:40;2.80;99.90
7676;DHT22;3880;51.464;-2.566;2022-12-07T01:26:11;2.80;99.90
7676;DHT22;3880;51.464;-2.566;2022-12-07T01:28:38;2.80;99.90
7676;DHT22;3880;51.464;-2.566;2022-12-07T01:31:07;2.90;99.90
7676;DHT22;3880;51.464;-2.566;2022-12-07T01:33:37;3.00;99.90
7676;DHT22;3880;51.464;-2.566;2022-12-07T01:36:07;3.00;99.90
7676;DHT22;3880;51.464;-2.566;2022-12-07T01:38:34;3.00;99.90
7676;DHT22;3880;51.464;-2.566;2022-12-07T01:41:02;3.20;99.90
7676;DHT22;3880;51.464;-2.566;2022-12-07T01:43:31;3.10;99.90
7676;DHT22;3880;51.464;-2.566;2022-12-07T01:45:58;3.00;99.90
7676;DHT22;3880;51.464;-2.566;2022-12-07T01:48:28;3.00;99.90
7676;DHT22;3880;51.464;-2.566;2022-12-07T01:51:01;2.90;99.90
7676;DHT22;3880;51.464;-2.566;2022-12-07T01:53:30;2.80;99.90
7676;DHT22;3880;51.464;-2.566;2022-12-07T01:55:59;3.00;99.90
7676;DHT22;3880;51.464;-2.566;2022-12-07T01:58:26;2.90;99.90
7676;DHT22;3880;51.464;-2.566;2022-12-07T02:00:53;3.00;99.90
7676;DHT22;3880;51.464;-2.566;2022-12-07T02:03:24;3.00;99.90
7676;DHT22;3880;51.464;-2.566;2022-12-07T02:05:53;3.00;99.90
7676;DHT22;3880;51.464;-2.566;2022-12-07T02:08:22;3.00;99.90
7676;DHT22;3880;51.464;-2.566;2022-12-07T02:10:49;2.90;99.90
7676;DHT22;3880;51.464;-2.566;2022-12-07T02:13:18;2.90;99.90
7676;DHT22;3880;51.464;-2.566;2022-12-07T02:16:09;3.00;99.90
7676;DHT22;3880;51.464;-2.566;2022-12-07T02:18:55;3.00;99.90
7676;DHT22;3880;51.464;-2.566;2022-12-07T02:21:34;3.00;99.90
7676;DHT22;3880;51.464;-2.566;2022-12-07T02:27:23;2.90;99.90
7676;DHT22;3880;51.464;-2.566;2022-12-07T02:29:58;2.90;99.90
7676;DHT22;3880;51.464;-2.566;2022-12-07T02:32:35;2.80;99.90
7676;DHT22;3880;51.464;-2.566;2022-12-07T02:35:08;2.90;99.90
7676;DHT22;3880;51.464;-2.566;2022-12-07T02:37:41;2.90;99.90
7676;DHT22;3880;51.464;-2.566;2022-12-07T02:40:16;2.80;99.90
7676;DHT22;3880;51.464;-2.566;2022-12-07T02:42:53;2.70;99.90
7676;DHT22;3880;51.464;-2.566;2022-12-07T02:45:25;2.50;99.90
7676;DHT22;3880;51.464;-2.566;2022-12-07T02:47:56;2.60;99.90
7676;DHT22;3880;51.464;-2.566;2022-12-07T02:50:26;2.60;99.90
7676;DHT22;3880;51.464;-2.566;2022-12-07T02:52:54;2.70;99.90
7676;DHT22;3880;51.464;-2.566;2022-12-07T02:55:26;2.70;99.90
7676;DHT22;3880;51.464;-2.566;2022-12-07T02:58:11;2.70;99.90
7676;DHT22;3880;51.464;-2.566;2022-12-07T03:00:46;2.80;99.90
7676;DHT22;3880;51.464;-2.566;2022-12-07T03:03:15;2.70;99.90
7676;DHT22;3880;51.464;-2.566;2022-12-07T03:05:58;2.70;99.90
7676;DHT22;3880;51.464;-2.566;2022-12-07T03:08:42;2.80;99.90
7676;DHT22;3880;51.464;-2.566;2022-12-07T03:11:13;2.70;99.90
7676;DHT22;3880;51.464;-2.566;2022-12-07T03:13:45;2.60;99.90
7676;DHT22;3880;51.464;-2.566;2022-12-07T03:16:17;2.40;99.90
7676;DHT22;3880;51.464;-2.566;2022-12-07T03:18:48;2.50;99.90
7676;DHT22;3880;51.464;-2.566;2022-12-07T03:21:20;2.40;99.90
7676;DHT22;3880;51.464;-2.566;2022-12-07T03:23:51;2.40;99.90
7676;DHT22;3880;51.464;-2.566;2022-12-07T03:26:19;2.40;99.90
7676;DHT22;3880;51.464;-2.566;2022-12-07T03:28:52;2.30;99.90
7676;DHT22;3880;51.464;-2.566;2022-12-07T03:31:23;2.40;99.90
7676;DHT22;3880;51.464;-2.566;2022-12-07T03:33:58;2.40;99.90
7676;DHT22;3880;51.464;-2.566;2022-12-07T03:36:31;2.50;99.90
7676;DHT22;3880;51.464;-2.566;2022-12-07T03:39:06;2.40;99.90
7676;DHT22;3880;51.464;-2.566;2022-12-07T03:41:36;2.40;99.90
7676;DHT22;3880;51.464;-2.566;2022-12-07T03:44:08;2.30;99.90
7676;DHT22;3880;51.464;-2.566;2022-12-07T03:46:41;2.20;99.90
7676;DHT22;3880;51.464;-2.566;2022-12-07T03:49:16;2.10;99.90
7676;DHT22;3880;51.464;-2.566;2022-12-07T03:51:50;2.00;99.90
7676;DHT22;3880;51.464;-2.566;2022-12-07T03:54:21;2.00;99.90
7676;DHT22;3880;51.464;-2.566;2022-12-07T03:56:50;2.10;99.90
7676;DHT22;3880;51.464;-2.566;2022-12-07T03:59:19;2.20;99.90
7676;DHT22;3880;51.464;-2.566;2022-12-07T04:01:54;2.20;99.90
7676;DHT22;3880;51.464;-2.566;2022-12-07T04:04:22;2.30;99.90
7676;DHT22;3880;51.464;-2.566;2022-12-07T04:06:49;2.30;99.90
7676;DHT22;3880;51.464;-2.566;2022-12-07T04:09:16;2.30;99.90
7676;DHT22;3880;51.464;-2.566;2022-12-07T04:11:44;2.30;99.90
7676;DHT22;3880;51.464;-2.566;2022-12-07T04:14:11;2.20;99.90
7676;DHT22;3880;51.464;-2.566;2022-12-07T04:16:47;2.30;99.90
7676;DHT22;3880;51.464;-2.566;2022-12-07T04:19:17;2.30;99.90
7676;DHT22;3880;51.464;-2.566;2022-12-07T04:21:45;2.40;99.90
7676;DHT22;3880;51.464;-2.566;2022-12-07T04:24:13;2.50;99.90
7676;DHT22;3880;51.464;-2.566;2022-12-07T04:26:42;2.50;99.90
7676;DHT22;3880;51.464;-2.566;2022-12-07T04:29:12;2.50;99.90
7676;DHT22;3880;51.464;-2.566;2022-12-07T04:31:39;2.30;99.90
7676;DHT22;3880;51.464;-2.566;2022-12-07T04:34:06;2.10;99.90
7676;DHT22;3880;51.464;-2.566;2022-12-07T04:36:35;2.10;99.90
7676;DHT22;3880;51.464;-2.566;2022-12-07T04:39:03;1.90;99.90
7676;DHT22;3880;51.464;-2.566;2022-12-07T04:41:31;1.90;99.90
7676;DHT22;3880;51.464;-2.566;2022-12-07T04:44:00;1.90;99.90
7676;DHT22;3880;51.464;-2.566;2022-12-07T04:46:28;1.90;99.90
7676;DHT22;3880;51.464;-2.566;2022-12-07T04:48:55;1.90;99.90
7676;DHT22;3880;51.464;-2.566;2022-12-07T04:51:25;1.70;99.90
7676;DHT22;3880;51.464;-2.566;2022-12-07T04:53:54;1.80;99.90
7676;DHT22;3880;51.464;-2.566;2022-12-07T04:56:22;1.80;99.90
7676;DHT22;3880;51.464;-2.566;2022-12-07T04:58:50;1.80;99.90
7676;DHT22;3880;51.464;-2.566;2022-12-07T05:01:18;1.70;99.90
7676;DHT22;3880;51.464;-2.566;2022-12-07T05:03:45;1.70;99.90
7676;DHT22;3880;51.464;-2.566;2022-12-07T05:06:12;1.70;99.90
7676;DHT22;3880;51.464;-2.566;2022-12-07T05:08:40;1.60;99.90
7676;DHT22;3880;51.464;-2.566;2022-12-07T05:11:10;1.60;99.90
7676;DHT22;3880;51.464;-2.566;2022-12-07T05:13:58;1.60;99.90
7676;DHT22;3880;51.464;-2.566;2022-12-07T05:16:25;1.60;99.90
7676;DHT22;3880;51.464;-2.566;2022-12-07T05:18:53;1.50;99.90
7676;DHT22;3880;51.464;-2.566;2022-12-07T05:21:20;1.60;99.90
7676;DHT22;3880;51.464;-2.566;2022-12-07T05:23:47;1.60;99.90
7676;DHT22;3880;51.464;-2.566;2022-12-07T05:26:15;1.70;99.90
7676;DHT22;3880;51.464;-2.566;2022-12-07T05:28:43;1.80;99.90
7676;DHT22;3880;51.464;-2.566;2022-12-07T05:31:10;1.80;99.90
7676;DHT22;3880;51.464;-2.566;2022-12-07T05:33:37;1.60;99.90
7676;DHT22;3880;51.464;-2.566;2022-12-07T05:36:05;1.60;99.90
7676;DHT22;3880;51.464;-2.566;2022-12-07T05:38:33;1.70;99.90
7676;DHT22;3880;51.464;-2.566;2022-12-07T05:41:01;1.60;99.90
7676;DHT22;3880;51.464;-2.566;2022-12-07T05:43:30;1.70;99.90
7676;DHT22;3880;51.464;-2.566;2022-12-07T05:45:57;1.70;99.90
7676;DHT22;3880;51.464;-2.566;2022-12-07T05:48:24;1.80;99.90
7676;DHT22;3880;51.464;-2.566;2022-12-07T05:50:52;1.90;99.90
7676;DHT22;3880;51.464;-2.566;2022-12-07T05:53:19;2.00;99.90
7676;DHT22;3880;51.464;-2.566;2022-12-07T05:55:46;1.90;99.90
7676;DHT22;3880;51.464;-2.566;2022-12-07T05:58:13;1.90;99.90
7676;DHT22;3880;51.464;-2.566;2022-12-07T06:00:58;1.90;99.90
7676;DHT22;3880;51.464;-2.566;2022-12-07T06:03:25;1.70;99.90
7676;DHT22;3880;51.464;-2.566;2022-12-07T06:05:52;1.60;99.90
7676;DHT22;3880;51.464;-2.566;2022-12-07T06:08:19;1.50;99.90
7676;DHT22;3880;51.464;-2.566;2022-12-07T06:10:47;1.50;99.90
7676;DHT22;3880;51.464;-2.566;2022-12-07T06:13:36;1.50;99.90
7676;DHT22;3880;51.464;-2.566;2022-12-07T06:16:04;1.50;99.90
7676;DHT22;3880;51.464;-2.566;2022-12-07T06:18:31;1.50;99.90
7676;DHT22;3880;51.464;-2.566;2022-12-07T06:20:59;1.60;99.90
7676;DHT22;3880;51.464;-2.566;2022-12-07T06:23:26;1.60;99.90
7676;DHT22;3880;51.464;-2.566;2022-12-07T06:25:53;1.60;99.90
7676;DHT22;3880;51.464;-2.566;2022-12-07T06:28:20;1.60;99.90
7676;DHT22;3880;51.464;-2.566;2022-12-07T06:30:47;1.80;99.90
7676;DHT22;3880;51.464;-2.566;2022-12-07T06:33:24;1.90;99.90
7676;DHT22;3880;51.464;-2.566;2022-12-07T06:35:51;1.90;99.90
7676;DHT22;3880;51.464;-2.566;2022-12-07T06:38:19;1.80;99.90
7676;DHT22;3880;51.464;-2.566;2022-12-07T06:40:46;1.90;99.90
7676;DHT22;3880;51.464;-2.566;2022-12-07T06:43:15;1.90;99.90
7676;DHT22;3880;51.464;-2.566;2022-12-07T06:45:42;1.80;99.90
7676;DHT22;3880;51.464;-2.566;2022-12-07T06:48:09;1.90;99.90
7676;DHT22;3880;51.464;-2.566;2022-12-07T06:50:37;2.00;99.90
7676;DHT22;3880;51.464;-2.566;2022-12-07T06:53:05;1.90;99.90
7676;DHT22;3880;51.464;-2.566;2022-12-07T06:55:32;2.00;99.90
7676;DHT22;3880;51.464;-2.566;2022-12-07T06:57:58;2.00;99.90
7676;DHT22;3880;51.464;-2.566;2022-12-07T07:00:27;2.00;99.90
7676;DHT22;3880;51.464;-2.566;2022-12-07T07:02:54;2.00;99.90
7676;DHT22;3880;51.464;-2.566;2022-12-07T07:05:21;1.90;99.90
7676;DHT22;3880;51.464;-2.566;2022-12-07T07:07:49;2.00;99.90
7676;DHT22;3880;51.464;-2.566;2022-12-07T07:10:17;2.00;99.90
7676;DHT22;3880;51.464;-2.566;2022-12-07T07:12:44;2.00;99.90
7676;DHT22;3880;51.464;-2.566;2022-12-07T07:15:11;1.90;99.90
7676;DHT22;3880;51.464;-2.566;2022-12-07T07:17:38;1.90;99.90
7676;DHT22;3880;51.464;-2.566;2022-12-07T07:20:06;1.90;99.90
7676;DHT22;3880;51.464;-2.566;2022-12-07T07:22:33;1.90;99.90
7676;DHT22;3880;51.464;-2.566;2022-12-07T07:25:02;2.00;99.90
7676;DHT22;3880;51.464;-2.566;2022-12-07T07:27:29;2.00;99.90
7676;DHT22;3880;51.464;-2.566;2022-12-07T07:29:56;2.00;99.90
7676;DHT22;3880;51.464;-2.566;2022-12-07T07:32:23;1.90;99.90
7676;DHT22;3880;51.464;-2.566;2022-12-07T07:34:50;1.90;99.90
7676;DHT22;3880;51.464;-2.566;2022-12-07T07:37:17;1.90;99.90
7676;DHT22;3880;51.464;-2.566;2022-12-07T07:39:44;1.80;99.90
7676;DHT22;3880;51.464;-2.566;2022-12-07T07:42:12;1.80;99.90
7676;DHT22;3880;51.464;-2.566;2022-12-07T07:44:39;1.70;99.90
7676;DHT22;3880;51.464;-2.566;2022-12-07T07:47:06;1.80;99.90
7676;DHT22;3880;51.464;-2.566;2022-12-07T07:49:34;1.80;99.90
7676;DHT22;3880;51.464;-2.566;2022-12-07T07:52:01;1.80;99.90
7676;DHT22;3880;51.464;-2.566;2022-12-07T07:54:28;1.70;99.90
7676;DHT22;3880;51.464;-2.566;2022-12-07T07:56:55;1.60;99.90
7676;DHT22;3880;51.464;-2.566;2022-12-07T07:59:24;1.60;99.90
7676;DHT22;3880;51.464;-2.566;2022-12-07T08:01:51;1.60;99.90
7676;DHT22;3880;51.464;-2.566;2022-12-07T08:04:18;1.80;99.90
7676;DHT22;3880;51.464;-2.566;2022-12-07T08:06:45;1.50;99.90
7676;DHT22;3880;51.464;-2.566;2022-12-07T08:09:12;1.40;99.90
7676;DHT22;3880;51.464;-2.566;2022-12-07T08:11:39;1.50;99.90
7676;DHT22;3880;51.464;-2.566;2022-12-07T08:14:06;1.60;99.90
7676;DHT22;3880;51.464;-2.566;2022-12-07T08:16:35;1.70;99.90
7676;DHT22;3880;51.464;-2.566;2022-12-07T08:19:04;1.60;99.90
7676;DHT22;3880;51.464;-2.566;2022-12-07T08:21:31;1.60;99.90
7676;DHT22;3880;51.464;-2.566;2022-12-07T08:23:58;1.60;99.90
7676;DHT22;3880;51.464;-2.566;2022-12-07T08:26:25;1.70;99.90
7676;DHT22;3880;51.464;-2.566;2022-12-07T08:28:53;1.80;99.90
7676;DHT22;3880;51.464;-2.566;2022-12-07T08:31:20;1.80;99.90
7676;DHT22;3880;51.464;-2.566;2022-12-07T08:33:49;1.70;99.90
7676;DHT22;3880;51.464;-2.566;2022-12-07T08:36:16;1.60;99.90
7676;DHT22;3880;51.464;-2.566;2022-12-07T08:38:44;1.70;99.90
7676;DHT22;3880;51.464;-2.566;2022-12-07T08:41:11;1.60;99.90
7676;DHT22;3880;51.464;-2.566;2022-12-07T08:43:38;1.60;99.90
7676;DHT22;3880;51.464;-2.566;2022-12-07T08:46:09;1.40;99.90
7676;DHT22;3880;51.464;-2.566;2022-12-07T08:48:40;1.40;99.90
7676;DHT22;3880;51.464;-2.566;2022-12-07T08:51:18;1.50;99.90
7676;DHT22;3880;51.464;-2.566;2022-12-07T08:53:46;1.50;99.90
7676;DHT22;3880;51.464;-2.566;2022-12-07T08:56:13;1.60;99.90
7676;DHT22;3880;51.464;-2.566;2022-12-07T08:58:41;1.80;99.90
7676;DHT22;3880;51.464;-2.566;2022-12-07T09:01:08;1.60;99.90
7676;DHT22;3880;51.464;-2.566;2022-12-07T09:03:36;1.80;99.90
7676;DHT22;3880;51.464;-2.566;2022-12-07T09:06:12;1.90;99.90
7676;DHT22;3880;51.464;-2.566;2022-12-07T09:08:56;2.00;99.90
7676;DHT22;3880;51.464;-2.566;2022-12-07T09:11:27;2.10;99.90
7676;DHT22;3880;51.464;-2.566;2022-12-07T09:13:56;2.20;99.90
7676;DHT22;3880;51.464;-2.566;2022-12-07T09:16:23;2.20;99.90
7676;DHT22;3880;51.464;-2.566;2022-12-07T09:18:51;2.20;99.90
7676;DHT22;3880;51.464;-2.566;2022-12-07T09:21:30;2.30;99.90
7676;DHT22;3880;51.464;-2.566;2022-12-07T09:24:03;2.30;99.90
7676;DHT22;3880;51.464;-2.566;2022-12-07T09:26:32;2.20;99.90
7676;DHT22;3880;51.464;-2.566;2022-12-07T09:29:01;2.30;99.90
7676;DHT22;3880;51.464;-2.566;2022-12-07T09:31:29;2.30;99.90
7676;DHT22;3880;51.464;-2.566;2022-12-07T09:33:57;2.40;99.90
7676;DHT22;3880;51.464;-2.566;2022-12-07T09:36:25;2.40;99.90
7676;DHT22;3880;51.464;-2.566;2022-12-07T09:38:52;2.40;99.90
7676;DHT22;3880;51.464;-2.566;2022-12-07T09:41:21;2.50;99.90
7676;DHT22;3880;51.464;-2.566;2022-12-07T09:43:50;3.20;99.90
7676;DHT22;3880;51.464;-2.566;2022-12-07T09:46:19;3.30;99.90
7676;DHT22;3880;51.464;-2.566;2022-12-07T09:48:49;3.50;99.90
7676;DHT22;3880;51.464;-2.566;2022-12-07T09:51:19;3.70;99.90
7676;DHT22;3880;51.464;-2.566;2022-12-07T09:53:48;3.90;99.90
7676;DHT22;3880;51.464;-2.566;2022-12-07T09:56:16;4.00;99.90
7676;DHT22;3880;51.464;-2.566;2022-12-07T09:58:46;4.30;99.90
7676;DHT22;3880;51.464;-2.566;2022-12-07T10:01:16;5.40;99.90
7676;DHT22;3880;51.464;-2.566;2022-12-07T10:03:49;6.00;99.90
7676;DHT22;3880;51.464;-2.566;2022-12-07T10:06:16;6.10;99.90
7676;DHT22;3880;51.464;-2.566;2022-12-07T10:08:44;5.80;99.90
7676;DHT22;3880;51.464;-2.566;2022-12-07T10:11:15;5.70;99.90
7676;DHT22;3880;51.464;-2.566;2022-12-07T10:13:43;5.30;99.90
7676;DHT22;3880;51.464;-2.566;2022-12-07T10:16:38;4.90;99.90
7676;DHT22;3880;51.464;-2.566;2022-12-07T10:19:22;4.70;99.90
7676;DHT22;3880;51.464;-2.566;2022-12-07T10:22:10;5.00;99.90
7676;DHT22;3880;51.464;-2.566;2022-12-07T10:24:38;6.40;99.90
7676;DHT22;3880;51.464;-2.566;2022-12-07T10:27:18;7.90;99.90
7676;DHT22;3880;51.464;-2.566;2022-12-07T10:29:53;8.90;99.90
7676;DHT22;3880;51.464;-2.566;2022-12-07T10:32:31;9.10;99.90
7676;DHT22;3880;51.464;-2.566;2022-12-07T10:35:20;8.90;99.90
7676;DHT22;3880;51.464;-2.566;2022-12-07T10:37:48;8.30;99.90
7676;DHT22;3880;51.464;-2.566;2022-12-07T10:40:28;7.80;99.90
7676;DHT22;3880;51.464;-2.566;2022-12-07T10:43:14;7.50;99.90
7676;DHT22;3880;51.464;-2.566;2022-12-07T10:46:01;7.30;99.90
7676;DHT22;3880;51.464;-2.566;2022-12-07T10:48:39;7.40;99.90
7676;DHT22;3880;51.464;-2.566;2022-12-07T10:51:13;7.60;99.90
7676;DHT22;3880;51.464;-2.566;2022-12-07T10:53:50;7.80;99.90
7676;DHT22;3880;51.464;-2.566;2022-12-07T10:59:43;8.40;99.90
7676;DHT22;3880;51.464;-2.566;2022-12-07T11:02:31;8.70;99.90
7676;DHT22;3880;51.464;-2.566;2022-12-07T11:05:16;9.00;99.90
7676;DHT22;3880;51.464;-2.566;2022-12-07T11:07:51;9.30;99.90
7676;DHT22;3880;51.464;-2.566;2022-12-07T11:10:25;9.30;99.90
7676;DHT22;3880;51.464;-2.566;2022-12-07T11:13:11;9.20;99.90
7676;DHT22;3880;51.464;-2.566;2022-12-07T11:16:16;9.10;99.90
7676;DHT22;3880;51.464;-2.566;2022-12-07T11:18:54;8.80;99.90
7676;DHT22;3880;51.464;-2.566;2022-12-07T11:21:31;8.50;99.90
7676;DHT22;3880;51.464;-2.566;2022-12-07T11:24:05;7.90;99.90
7676;DHT22;3880;51.464;-2.566;2022-12-07T11:26:45;7.50;99.90
7676;DHT22;3880;51.464;-2.566;2022-12-07T11:29:25;7.40;99.90
7676;DHT22;3880;51.464;-2.566;2022-12-07T11:32:02;7.40;99.90
7676;DHT22;3880;51.464;-2.566;2022-12-07T11:34:38;7.40;99.90
7676;DHT22;3880;51.464;-2.566;2022-12-07T11:37:15;7.30;99.90
7676;DHT22;3880;51.464;-2.566;2022-12-07T11:39:50;7.40;99.90
7676;DHT22;3880;51.464;-2.566;2022-12-07T11:42:22;7.30;99.90
7676;DHT22;3880;51.464;-2.566;2022-12-07T11:44:55;7.20;99.90
7676;DHT22;3880;51.464;-2.566;2022-12-07T11:47:30;7.20;99.90
7676;DHT22;3880;51.464;-2.566;2022-12-07T11:50:10;6.90;99.90
7676;DHT22;3880;51.464;-2.566;2022-12-07T11:52:47;6.60;99.90
7676;DHT22;3880;51.464;-2.566;2022-12-07T11:55:22;6.50;99.90
7676;DHT22;3880;51.464;-2.566;2022-12-07T11:58:01;6.40;99.90
7676;DHT22;3880;51.464;-2.566;2022-12-07T12:00:29;6.30;99.90
7676;DHT22;3880;51.464;-2.566;2022-12-07T12:03:01;6.40;99.90
7676;DHT22;3880;51.464;-2.566;2022-12-07T12:05:29;6.10;99.90
7676;DHT22;3880;51.464;-2.566;2022-12-07T12:08:03;6.00;99.90
7676;DHT22;3880;51.464;-2.566;2022-12-07T12:10:40;5.90;99.90
7676;DHT22;3880;51.464;-2.566;2022-12-07T12:13:39;6.00;99.90
7676;DHT22;3880;51.464;-2.566;2022-12-07T12:16:30;6.00;99.90
7676;DHT22;3880;51.464;-2.566;2022-12-07T12:19:18;6.20;99.90
7676;DHT22;3880;51.464;-2.566;2022-12-07T12:21:48;6.40;99.90
7676;DHT22;3880;51.464;-2.566;2022-12-07T12:24:24;6.30;99.90
7676;DHT22;3880;51.464;-2.566;2022-12-07T12:26:55;6.40;99.90
7676;DHT22;3880;51.464;-2.566;2022-12-07T12:29:30;6.40;99.90
7676;DHT22;3880;51.464;-2.566;2022-12-07T12:32:16;6.50;99.90
7676;DHT22;3880;51.464;-2.566;2022-12-07T12:34:59;6.50;99.90
7676;DHT22;3880;51.464;-2.566;2022-12-07T12:37:42;6.50;99.90
7676;DHT22;3880;51.464;-2.566;2022-12-07T12:40:43;6.40;99.90
7676;DHT22;3880;51.464;-2.566;2022-12-07T12:43:49;6.10;99.90
7676;DHT22;3880;51.464;-2.566;2022-12-07T12:46:52;6.10;99.90
7676;DHT22;3880;51.464;-2.566;2022-12-07T12:49:40;6.10;99.90
7676;DHT22;3880;51.464;-2.566;2022-12-07T12:55:41;6.00;99.90
7676;DHT22;3880;51.464;-2.566;2022-12-07T12:58:36;6.00;99.90
7676;DHT22;3880;51.464;-2.566;2022-12-07T13:07:54;6.10;99.90
7676;DHT22;3880;51.464;-2.566;2022-12-07T13:10:35;6.00;99.90
7676;DHT22;3880;51.464;-2.566;2022-12-07T13:13:25;6.00;99.90
7676;DHT22;3880;51.464;-2.566;2022-12-07T13:15:54;6.20;99.90
7676;DHT22;3880;51.464;-2.566;2022-12-07T13:18:24;6.20;99.90
7676;DHT22;3880;51.464;-2.566;2022-12-07T13:20:54;6.20;99.90
7676;DHT22;3880;51.464;-2.566;2022-12-07T13:23:30;6.20;99.90
7676;DHT22;3880;51.464;-2.566;2022-12-07T13:26:09;6.20;99.90
7676;DHT22;3880;51.464;-2.566;2022-12-07T13:28:43;6.10;99.90
7676;DHT22;3880;51.464;-2.566;2022-12-07T13:34:27;6.10;99.90
7676;DHT22;3880;51.464;-2.566;2022-12-07T13:36:52;6.00;99.90
7676;DHT22;3880;51.464;-2.566;2022-12-07T13:39:22;6.10;99.90
7676;DHT22;3880;51.464;-2.566;2022-12-07T13:41:52;6.20;99.90
7676;DHT22;3880;51.464;-2.566;2022-12-07T13:44:20;6.10;99.90
7676;DHT22;3880;51.464;-2.566;2022-12-07T13:46:56;6.10;99.90
7676;DHT22;3880;51.464;-2.566;2022-12-07T13:49:26;6.10;99.90
7676;DHT22;3880;51.464;-2.566;2022-12-07T13:52:06;6.10;99.90
7676;DHT22;3880;51.464;-2.566;2022-12-07T13:54:43;6.00;99.90
7676;DHT22;3880;51.464;-2.566;2022-12-07T13:57:11;6.10;99.90
7676;DHT22;3880;51.464;-2.566;2022-12-07T13:59:38;5.90;99.90
7676;DHT22;3880;51.464;-2.566;2022-12-07T14:02:18;6.00;99.90
7676;DHT22;3880;51.464;-2.566;2022-12-07T14:04:46;5.90;99.90
7676;DHT22;3880;51.464;-2.566;2022-12-07T14:07:21;5.90;99.90
7676;DHT22;3880;51.464;-2.566;2022-12-07T14:09:59;5.80;99.90
7676;DHT22;3880;51.464;-2.566;2022-12-07T14:12:28;5.90;99.90
7676;DHT22;3880;51.464;-2.566;2022-12-07T14:14:57;5.80;99.90
7676;DHT22;3880;51.464;-2.566;2022-12-07T14:17:27;5.80;99.90
7676;DHT22;3880;51.464;-2.566;2022-12-07T14:19:55;5.80;99.90
7676;DHT22;3880;51.464;-2.566;2022-12-07T14:22:33;5.80;99.90
7676;DHT22;3880;51.464;-2.566;2022-12-07T14:25:13;5.70;99.90
7676;DHT22;3880;51.464;-2.566;2022-12-07T14:27:49;5.70;99.90
7676;DHT22;3880;51.464;-2.566;2022-12-07T14:30:18;5.80;99.90
7676;DHT22;3880;51.464;-2.566;2022-12-07T14:32:49;5.70;99.90
7676;DHT22;3880;51.464;-2.566;2022-12-07T14:35:18;5.70;99.90
7676;DHT22;3880;51.464;-2.566;2022-12-07T14:37:47;5.90;99.90
7676;DHT22;3880;51.464;-2.566;2022-12-07T14:40:17;5.80;99.90
7676;DHT22;3880;51.464;-2.566;2022-12-07T14:42:45;5.80;99.90
7676;DHT22;3880;51.464;-2.566;2022-12-07T14:45:15;5.70;99.90
7676;DHT22;3880;51.464;-2.566;2022-12-07T14:47:43;5.90;99.90
7676;DHT22;3880;51.464;-2.566;2022-12-07T14:50:14;5.90;99.90
7676;DHT22;3880;51.464;-2.566;2022-12-07T14:52:44;5.80;99.90
7676;DHT22;3880;51.464;-2.566;2022-12-07T14:55:14;5.80;99.90
7676;DHT22;3880;51.464;-2.566;2022-12-07T14:57:43;5.80;99.90
7676;DHT22;3880;51.464;-2.566;2022-12-07T15:00:14;5.70;99.90
7676;DHT22;3880;51.464;-2.566;2022-12-07T15:02:42;5.70;99.90
7676;DHT22;3880;51.464;-2.566;2022-12-07T15:05:10;5.60;99.90
7676;DHT22;3880;51.464;-2.566;2022-12-07T15:07:39;5.50;99.90
7676;DHT22;3880;51.464;-2.566;2022-12-07T15:10:09;5.50;99.90
7676;DHT22;3880;51.464;-2.566;2022-12-07T15:12:37;5.40;99.90
7676;DHT22;3880;51.464;-2.566;2022-12-07T15:15:05;5.40;99.90
7676;DHT22;3880;51.464;-2.566;2022-12-07T15:17:32;5.30;99.90
7676;DHT22;3880;51.464;-2.566;2022-12-07T15:20:00;5.30;99.90
7676;DHT22;3880;51.464;-2.566;2022-12-07T15:22:27;5.30;99.90
7676;DHT22;3880;51.464;-2.566;2022-12-07T15:24:56;5.10;99.90
7676;DHT22;3880;51.464;-2.566;2022-12-07T15:27:24;5.00;99.90
7676;DHT22;3880;51.464;-2.566;2022-12-07T15:29:51;4.90;99.90
7676;DHT22;3880;51.464;-2.566;2022-12-07T15:32:19;4.90;99.90
7676;DHT22;3880;51.464;-2.566;2022-12-07T15:34:46;4.80;99.90
7676;DHT22;3880;51.464;-2.566;2022-12-07T15:37:13;4.80;99.90
7676;DHT22;3880;51.464;-2.566;2022-12-07T15:39:40;4.70;99.90
7676;DHT22;3880;51.464;-2.566;2022-12-07T15:42:09;4.60;99.90
7676;DHT22;3880;51.464;-2.566;2022-12-07T15:44:36;4.60;99.90
7676;DHT22;3880;51.464;-2.566;2022-12-07T15:47:20;4.50;99.90
7676;DHT22;3880;51.464;-2.566;2022-12-07T15:49:47;4.40;99.90
7676;DHT22;3880;51.464;-2.566;2022-12-07T15:52:14;4.30;99.90
7676;DHT22;3880;51.464;-2.566;2022-12-07T15:54:41;4.30;99.90
7676;DHT22;3880;51.464;-2.566;2022-12-07T15:57:10;4.30;99.90
7676;DHT22;3880;51.464;-2.566;2022-12-07T15:59:37;4.30;99.90
7676;DHT22;3880;51.464;-2.566;2022-12-07T16:02:04;4.10;99.90
7676;DHT22;3880;51.464;-2.566;2022-12-07T16:04:31;4.00;99.90
7676;DHT22;3880;51.464;-2.566;2022-12-07T16:06:58;4.00;99.90
7676;DHT22;3880;51.464;-2.566;2022-12-07T16:09:25;3.90;99.90
7676;DHT22;3880;51.464;-2.566;2022-12-07T16:11:53;3.90;99.90
7676;DHT22;3880;51.464;-2.566;2022-12-07T16:14:23;3.90;99.90
7676;DHT22;3880;51.464;-2.566;2022-12-07T16:16:51;3.80;99.90
7676;DHT22;3880;51.464;-2.566;2022-12-07T16:19:18;3.80;99.90
7676;DHT22;3880;51.464;-2.566;2022-12-07T16:21:45;3.90;99.90
7676;DHT22;3880;51.464;-2.566;2022-12-07T16:24:12;3.90;99.90
7676;DHT22;3880;51.464;-2.566;2022-12-07T16:26:40;3.90;99.90
7676;DHT22;3880;51.464;-2.566;2022-12-07T16:29:11;3.90;99.90
7676;DHT22;3880;51.464;-2.566;2022-12-07T16:31:39;3.90;99.90
7676;DHT22;3880;51.464;-2.566;2022-12-07T16:34:08;3.90;99.90
7676;DHT22;3880;51.464;-2.566;2022-12-07T16:36:35;3.80;99.90
7676;DHT22;3880;51.464;-2.566;2022-12-07T16:39:04;3.70;99.90
7676;DHT22;3880;51.464;-2.566;2022-12-07T16:41:31;3.60;99.90
7676;DHT22;3880;51.464;-2.566;2022-12-07T16:44:02;3.60;99.90
7676;DHT22;3880;51.464;-2.566;2022-12-07T16:46:31;3.60;99.90
7676;DHT22;3880;51.464;-2.566;2022-12-07T16:49:00;3.50;99.90